Time;durP1;ratioP1;P1;durP2;ratioP2;P2;SDS_P1;SDS_P2;PMS_P1;PMS_P2;Temp;Humidity;BMP_temperature;BMP_pressure;BME280_temperature;BME280_humidity;BME280_pressure;Samples;Min_cycle;Max_cycle;Signal;HPM_P1;HPM_P2
2023/08/10 00:01:02;;;;;;;0.20;0.20;;;;;;;12.41;100.00;101944.25;5056278;28;20361;-50
2023/08/10 00:03:28;;;;;;;0.20;0.20;;;;;;;12.45;100.00;101942.69;5055720;28;20519;-50
2023/08/10 00:05:54;;;;;;;0.10;0.10;;;;;;;12.42;100.00;101940.88;5055296;28;20027;-51
2023/08/10 00:08:19;;;;;;;0.10;0.10;;;;;;;12.50;100.00;101944.63;5056205;28;20028;-49
2023/08/10 00:10:49;;;;;;;0.10;0.10;;;;;;;12.45;100.00;101955.63;5055508;28;20033;-51
2023/08/10 00:13:14;;;;;;;0.10;0.10;;;;;;;12.50;100.00;101954.97;5055606;28;20063;-49
2023/08/10 00:15:40;;;;;;;0.10;0.10;;;;;;;12.49;100.00;101955.78;5055721;28;20052;-50
2023/08/10 00:18:06;;;;;;;0.10;0.10;;;;;;;12.54;100.00;101949.91;5055868;28;20043;-51
2023/08/10 00:20:32;;;;;;;0.10;0.10;;;;;;;12.52;100.00;101955.00;5054882;28;20100;-50
2023/08/10 00:22:57;;;;;;;0.10;0.10;;;;;;;12.57;100.00;101950.91;5055813;28;20049;-50
2023/08/10 00:25:23;;;;;;;0.10;0.10;;;;;;;12.56;100.00;101949.13;5054534;28;20384;-49
2023/08/10 00:27:48;;;;;;;0.20;0.20;;;;;;;12.57;100.00;101956.06;5055801;28;20477;-50
2023/08/10 00:30:14;;;;;;;0.20;0.20;;;;;;;12.65;100.00;101953.78;5055617;28;20552;-50
2023/08/10 00:32:39;;;;;;;0.10;0.10;;;;;;;12.64;100.00;101950.34;5054691;28;20025;-50
2023/08/10 00:35:05;;;;;;;0.10;0.10;;;;;;;12.61;100.00;101951.91;5055647;28;20025;-50
2023/08/10 00:37:31;;;;;;;0.10;0.10;;;;;;;12.62;100.00;101958.84;5055172;28;20033;-45
2023/08/10 00:39:56;;;;;;;0.10;0.10;;;;;;;12.58;100.00;101959.56;5054692;28;20461;-50
2023/08/10 00:42:21;;;;;;;0.10;0.10;;;;;;;12.60;100.00;101951.03;5055314;28;20035;-51
2023/08/10 00:44:47;;;;;;;0.10;0.10;;;;;;;12.64;100.00;101955.50;5054961;28;20029;-50
2023/08/10 00:47:14;;;;;;;0.10;0.10;;;;;;;12.67;100.00;101949.56;5053198;28;20029;-50
2023/08/10 00:49:40;;;;;;;0.10;0.10;;;;;;;12.66;100.00;101945.22;5055173;28;20075;-50
2023/08/10 00:52:05;;;;;;;0.10;0.10;;;;;;;12.72;100.00;101945.47;5055461;28;20040;-49
2023/08/10 00:54:31;;;;;;;0.10;0.10;;;;;;;12.74;100.00;101945.50;5053987;28;20108;-51
2023/08/10 00:56:57;;;;;;;0.10;0.10;;;;;;;12.77;100.00;101943.03;5055230;28;20108;-48
2023/08/10 00:59:24;;;;;;;0.10;0.10;;;;;;;12.73;100.00;101948.91;5054997;28;20108;-48
2023/08/10 01:01:50;;;;;;;0.10;0.10;;;;;;;12.78;100.00;101950.88;5054419;28;20033;-50
2023/08/10 01:04:15;;;;;;;0.20;0.20;;;;;;;12.76;100.00;101947.34;5055028;28;20373;-49
2023/08/10 01:06:49;;;;;;;0.17;0.17;;;;;;;12.74;100.00;101948.97;5054553;28;20083;-49
2023/08/10 01:09:44;;;;;;;0.10;0.10;;;;;;;12.69;100.00;101950.50;5054396;28;20020;-49
2023/08/10 01:12:45;;;;;;;0.10;0.10;;;;;;;12.72;100.00;101945.47;5045580;28;20063;-47
2023/08/10 01:15:31;;;;;;;0.10;0.10;;;;;;;12.76;100.00;101951.63;5054039;28;20013;-50
2023/08/10 01:17:59;;;;;;;0.10;0.10;;;;;;;12.62;100.00;101958.84;5054673;28;20493;-46
2023/08/10 01:20:25;;;;;;;;;;;;;;;12.81;100.00;101953.56;5054988;28;20037;-51
2023/08/10 01:23:07;;;;;;;0.10;0.10;;;;;;;12.66;100.00;101950.38;5053855;28;19920;-47
2023/08/10 01:25:34;;;;;;;0.20;0.20;;;;;;;12.68;100.00;101952.22;5054279;28;20479;-50
2023/08/10 01:28:00;;;;;;;0.10;0.10;;;;;;;12.67;100.00;101965.09;5054649;28;20033;-50
2023/08/10 01:30:25;;;;;;;0.10;0.10;;;;;;;12.70;100.00;101964.31;5053634;28;20075;-49
2023/08/10 01:32:52;;;;;;;0.10;0.10;;;;;;;12.56;100.00;101958.59;5054382;28;20063;-51
2023/08/10 01:35:17;;;;;;;0.10;0.10;;;;;;;12.55;100.00;101967.19;5054535;28;20472;-50
2023/08/10 01:37:43;;;;;;;0.10;0.10;;;;;;;12.49;100.00;101963.53;5053483;28;20060;-49
2023/08/10 01:40:09;;;;;;;0.20;0.20;;;;;;;12.51;100.00;101956.72;5054284;28;20602;-48
2023/08/10 01:42:35;;;;;;;0.10;0.10;;;;;;;12.46;100.00;101958.25;5053648;28;20460;-50
2023/08/10 01:45:02;;;;;;;0.10;0.10;;;;;;;12.38;100.00;101959.63;5054064;28;20049;-50
2023/08/10 01:47:36;;;;;;;0.10;0.10;;;;;;;12.36;100.00;101961.28;5054069;28;20100;-49
2023/08/10 01:50:04;;;;;;;0.10;0.10;;;;;;;12.28;100.00;101962.69;5053552;28;20043;-49
2023/08/10 01:52:45;;;;;;;0.10;0.10;;;;;;;12.22;100.00;101958.13;5053668;28;20057;-47
2023/08/10 01:55:12;;;;;;;0.10;0.10;;;;;;;12.06;100.00;101956.66;5054203;28;20033;-50
2023/08/10 01:57:37;;;;;;;0.10;0.10;;;;;;;11.97;100.00;101954.56;5052659;28;20070;-50
2023/08/10 02:00:06;;;;;;;0.10;0.10;;;;;;;11.93;100.00;101955.22;5054031;28;20025;-51
2023/08/10 02:02:32;;;;;;;0.17;0.17;;;;;;;11.66;100.00;101945.47;5053597;28;20032;-49
2023/08/10 02:04:58;;;;;;;0.10;0.10;;;;;;;11.66;100.00;101954.94;5053158;28;20025;-50
2023/08/10 02:07:24;;;;;;;0.13;0.13;;;;;;;11.63;100.00;101950.53;5053250;28;20033;-50
2023/08/10 02:09:49;;;;;;;0.13;0.13;;;;;;;11.57;100.00;101951.94;5053993;28;20544;-51
2023/08/10 02:12:15;;;;;;;0.20;0.20;;;;;;;11.49;100.00;101956.75;5053055;28;20025;-51
2023/08/10 02:14:40;;;;;;;0.10;0.10;;;;;;;11.49;100.00;101957.66;5053374;28;20558;-50
2023/08/10 02:17:05;;;;;;;0.13;0.13;;;;;;;11.39;100.00;101955.50;5053737;28;20100;-50
2023/08/10 02:19:31;;;;;;;0.15;0.15;;;;;;;11.34;100.00;101951.81;5052519;28;20021;-50
2023/08/10 02:21:56;;;;;;;0.10;0.10;;;;;;;11.37;100.00;101957.13;5053420;28;20021;-50
2023/08/10 02:24:22;;;;;;;0.10;0.10;;;;;;;11.37;100.00;101957.13;5053626;28;20120;-49
2023/08/10 02:26:47;;;;;;;0.20;0.20;;;;;;;11.37;100.00;101962.28;5052459;28;20046;-49
2023/08/10 02:29:13;;;;;;;0.10;0.10;;;;;;;11.29;100.00;101958.47;5053469;28;20045;-49
2023/08/10 02:31:38;;;;;;;0.20;0.20;;;;;;;11.18;100.00;101957.97;5053022;28;20523;-50
2023/08/10 02:34:03;;;;;;;0.10;0.10;;;;;;;11.13;100.00;101959.47;5052412;28;20075;-51
2023/08/10 02:36:29;;;;;;;0.10;0.10;;;;;;;11.15;100.00;101965.59;5052975;28;20040;-50
2023/08/10 02:38:54;;;;;;;0.10;0.10;;;;;;;11.22;100.00;101961.59;5052540;28;20116;-47
2023/08/10 02:41:19;;;;;;;0.10;0.10;;;;;;;11.20;100.00;101964.97;5053348;28;20059;-47
2023/08/10 02:43:45;;;;;;;0.10;0.10;;;;;;;11.06;100.00;101970.34;5052994;28;20021;-50
2023/08/10 02:46:10;;;;;;;0.13;0.13;;;;;;;10.97;100.00;101966.50;5052060;28;20040;-50
2023/08/10 02:48:35;;;;;;;0.10;0.10;;;;;;;10.92;100.00;101973.16;5052840;28;20067;-50
2023/08/10 02:51:01;;;;;;;0.10;0.10;;;;;;;10.91;100.00;101967.94;5053001;28;20029;-49
2023/08/10 02:53:27;;;;;;;0.13;0.13;;;;;;;10.87;100.00;101970.38;5051912;28;20404;-51
2023/08/10 02:55:52;;;;;;;0.10;0.10;;;;;;;10.82;100.00;101963.22;5052934;28;20526;-50
2023/08/10 02:58:20;;;;;;;0.10;0.10;;;;;;;10.76;100.00;101970.69;5052842;28;20048;-49
2023/08/10 03:00:46;;;;;;;0.10;0.10;;;;;;;10.73;100.00;101968.88;5051772;28;20474;-50
2023/08/10 03:03:11;;;;;;;0.10;0.10;;;;;;;10.69;100.00;101977.25;5052997;28;20031;-50
2023/08/10 03:05:36;;;;;;;0.10;0.10;;;;;;;10.65;100.00;101967.59;5052576;28;20044;-50
2023/08/10 03:08:02;;;;;;;0.20;0.20;;;;;;;10.62;100.00;101973.50;5052249;28;20108;-51
2023/08/10 03:10:27;;;;;;;0.10;0.10;;;;;;;10.67;100.00;101976.31;5051941;28;20083;-48
2023/08/10 03:12:52;;;;;;;0.10;0.10;;;;;;;10.69;100.00;101979.81;5052855;28;20025;-50
2023/08/10 03:15:18;;;;;;;0.10;0.10;;;;;;;10.73;100.00;101984.34;5052062;28;20452;-49
2023/08/10 03:17:44;;;;;;;0.20;0.20;;;;;;;10.78;100.00;101984.53;5052465;28;20485;-51
2023/08/10 03:20:14;;;;;;;0.20;0.20;;;;;;;10.85;100.00;101987.47;5052641;28;20029;-51
2023/08/10 03:22:39;;;;;;;0.10;0.10;;;;;;;10.91;100.00;101988.56;5051868;28;20041;-50
2023/08/10 03:25:05;;;;;;;0.20;0.20;;;;;;;10.95;100.00;101987.91;5052778;28;20094;-50
2023/08/10 03:27:31;;;;;;;0.10;0.10;;;;;;;11.01;100.00;101983.94;5052156;28;20029;-50
2023/08/10 03:29:56;;;;;;;0.10;0.10;;;;;;;10.97;100.00;101987.16;5051899;28;20060;-51
2023/08/10 03:32:21;;;;;;;0.10;0.10;;;;;;;10.94;100.00;101976.72;5052609;28;20078;-51
2023/08/10 03:34:47;;;;;;;0.10;0.10;;;;;;;10.87;100.00;101985.88;5052277;28;20029;-50
2023/08/10 03:37:12;;;;;;;0.10;0.10;;;;;;;10.85;100.00;101979.72;5051733;28;20029;-50
2023/08/10 03:39:38;;;;;;;0.10;0.10;;;;;;;10.90;100.00;101979.97;5052215;28;20357;-49
2023/08/10 03:42:03;;;;;;;0.20;0.20;;;;;;;10.89;100.00;101982.47;5052432;28;20479;-49
2023/08/10 03:44:28;;;;;;;0.10;0.10;;;;;;;10.90;100.00;101986.78;5051497;28;20049;-49
2023/08/10 03:46:54;;;;;;;0.20;0.20;;;;;;;10.92;100.00;101982.59;5052165;28;20064;-50
2023/08/10 03:49:19;;;;;;;0.10;0.10;;;;;;;10.91;100.00;101975.69;5051511;28;20512;-49
2023/08/10 03:51:45;;;;;;;0.10;0.10;;;;;;;10.91;100.00;101986.00;5052039;28;20102;-50
2023/08/10 03:54:10;;;;;;;0.20;0.20;;;;;;;10.91;100.00;101980.84;5052596;28;20078;-51
2023/08/10 03:56:37;;;;;;;0.10;0.10;;;;;;;10.89;100.00;101977.31;5051412;28;20062;-51
2023/08/10 03:59:04;;;;;;;0.10;0.10;;;;;;;10.85;100.00;101984.88;5052250;28;20472;-48
2023/08/10 04:01:30;;;;;;;0.10;0.10;;;;;;;10.82;100.00;101982.19;5052065;28;20070;-49
2023/08/10 04:03:56;;;;;;;0.20;0.20;;;;;;;10.76;100.00;101984.47;5051502;28;20021;-51
2023/08/10 04:06:22;;;;;;;0.10;0.10;;;;;;;10.74;100.00;101987.78;5052058;28;20104;-50
2023/08/10 04:08:48;;;;;;;0.10;0.10;;;;;;;10.68;100.00;101993.53;5052373;28;20018;-49
2023/08/10 04:11:14;;;;;;;0.20;0.20;;;;;;;10.53;100.00;101981.69;5051352;28;20075;-48
2023/08/10 04:13:39;;;;;;;0.10;0.10;;;;;;;10.61;100.00;101979.47;5051967;28;20025;-50
2023/08/10 04:16:05;;;;;;;0.10;0.10;;;;;;;10.52;100.00;101979.94;5052203;28;20112;-51
2023/08/10 04:18:30;;;;;;;0.10;0.10;;;;;;;10.56;100.00;101988.69;5051197;28;20104;-49
2023/08/10 04:20:55;;;;;;;0.10;0.10;;;;;;;10.56;100.00;101988.69;5052670;28;20033;-49
2023/08/10 04:23:21;;;;;;;0.20;0.20;;;;;;;10.58;100.00;101997.38;5055974;28;20032;-51
2023/08/10 04:25:46;;;;;;;0.10;0.10;;;;;;;10.54;100.00;102000.63;5054946;28;20063;-50
2023/08/10 04:28:12;;;;;;;0.10;0.10;;;;;;;10.57;100.00;102000.75;5055604;28;20036;-49
2023/08/10 04:30:38;;;;;;;0.20;0.20;;;;;;;10.49;100.00;102002.09;5055311;28;20053;-51
2023/08/10 04:33:04;;;;;;;0.10;0.10;;;;;;;10.46;100.00;102000.25;5054884;28;20095;-48
2023/08/10 04:35:29;;;;;;;0.10;0.10;;;;;;;10.51;100.00;102000.47;5055310;28;20325;-51
2023/08/10 04:37:54;;;;;;;0.10;0.10;;;;;;;10.46;100.00;101997.66;5055725;28;20033;-50
2023/08/10 04:40:20;;;;;;;0.20;0.20;;;;;;;10.36;100.00;101996.31;5054856;28;20468;-49
2023/08/10 04:42:46;;;;;;;0.10;0.10;;;;;;;10.45;100.00;102001.03;5055181;28;20021;-51
2023/08/10 04:45:11;;;;;;;0.10;0.10;;;;;;;10.44;100.00;102013.88;5055357;28;20414;-51
2023/08/10 04:47:38;;;;;;;0.10;0.10;;;;;;;10.44;100.00;102014.72;5054217;28;20090;-49
2023/08/10 04:50:03;;;;;;;0.20;0.20;;;;;;;10.48;100.00;102014.09;5055336;28;20051;-50
2023/08/10 04:52:29;;;;;;;0.10;0.10;;;;;;;10.50;100.00;102012.47;5054252;28;20376;-48
2023/08/10 04:54:54;;;;;;;0.10;0.10;;;;;;;10.54;100.00;102019.53;5055204;28;20040;-50
2023/08/10 04:57:19;;;;;;;0.20;0.20;;;;;;;10.53;100.00;102020.38;5055233;28;20037;-49
2023/08/10 04:59:45;;;;;;;0.10;0.10;;;;;;;10.60;100.00;102015.47;5054073;28;20021;-51
2023/08/10 05:02:10;;;;;;;0.20;0.20;;;;;;;10.71;100.00;102022.03;5054953;28;20420;-51
2023/08/10 05:04:35;;;;;;;0.20;0.20;;;;;;;10.81;100.00;102021.66;5054846;28;20111;-49
2023/08/10 05:07:01;;;;;;;0.10;0.10;;;;;;;10.91;100.00;102016.94;5053993;28;20037;-47
2023/08/10 05:09:26;;;;;;;0.20;0.20;;;;;;;11.09;100.00;102022.06;5054879;28;20539;-49
2023/08/10 05:11:52;;;;;;;0.15;0.15;;;;;;;11.24;100.00;102016.75;5054964;28;20027;-50
2023/08/10 05:14:17;;;;;;;0.10;0.10;;;;;;;11.32;100.00;102012.81;5054041;28;20028;-49
2023/08/10 05:16:43;;;;;;;0.20;0.20;;;;;;;11.41;100.00;102020.97;5054623;28;20044;-49
2023/08/10 05:19:08;;;;;;;0.10;0.10;;;;;;;11.47;100.00;102020.38;5054788;28;20075;-49
2023/08/10 05:21:33;;;;;;;0.20;0.20;;;;;;;11.55;100.00;102019.00;5053787;28;20056;-50
2023/08/10 05:23:59;;;;;;;0.10;0.10;;;;;;;11.64;100.00;102013.38;5054809;28;20415;-50
2023/08/10 05:26:24;;;;;;;0.20;0.20;;;;;;;11.73;100.00;102013.75;5054099;28;20472;-50
2023/08/10 05:28:49;;;;;;;0.20;0.20;;;;;;;11.81;100.00;102017.59;5053716;28;20059;-49
2023/08/10 05:31:15;;;;;;;0.20;0.20;;;;;;;11.91;100.00;102021.44;5054517;28;20022;-49
2023/08/10 05:33:40;;;;;;;0.10;0.10;;;;;;;11.99;100.00;102017.53;5053331;28;20025;-49
2023/08/10 05:36:07;;;;;;;0.10;0.10;;;;;;;12.05;100.00;102019.47;5053871;28;20477;-49
2023/08/10 05:38:32;;;;;;;0.10;0.10;;;;;;;12.14;100.00;102013.81;5054146;28;20056;-50
2023/08/10 05:40:57;;;;;;;0.10;0.10;;;;;;;12.17;100.00;102017.41;5054439;28;20159;-50
2023/08/10 05:43:23;;;;;;;0.10;0.10;;;;;;;12.25;100.00;102009.06;5053146;28;20025;-48
2023/08/10 05:45:49;;;;;;;0.10;0.10;;;;;;;12.32;100.00;102011.13;5054058;28;20041;-50
2023/08/10 05:48:14;;;;;;;0.10;0.10;;;;;;;12.38;100.00;102010.47;5054036;28;20029;-51
2023/08/10 05:50:41;;;;;;;0.10;0.10;;;;;;;12.44;100.00;102008.13;5053319;28;20376;-47
2023/08/10 05:53:06;;;;;;;0.20;0.20;;;;;;;12.52;100.00;102010.22;5054080;28;20025;-47
2023/08/10 05:55:32;;;;;;;0.13;0.13;;;;;;;12.60;100.00;102012.22;5053948;28;20021;-50
2023/08/10 05:57:58;;;;;;;0.10;0.10;;;;;;;12.72;100.00;102014.41;5053476;28;20029;-50
2023/08/10 06:00:23;;;;;;;0.10;0.10;;;;;;;12.84;100.00;102007.13;5053589;28;20048;-49
2023/08/10 06:02:50;;;;;;;0.10;0.10;;;;;;;12.96;100.00;102005.03;5053185;28;20029;-49
2023/08/10 06:05:16;;;;;;;0.10;0.10;;;;;;;13.14;100.00;102014.31;5054032;28;20373;-50
2023/08/10 06:07:42;;;;;;;0.10;0.10;;;;;;;13.36;100.00;102010.78;5053352;28;20392;-48
2023/08/10 06:10:07;;;;;;;0.10;0.10;;;;;;;13.50;100.00;102004.47;5053235;28;20017;-46
2023/08/10 06:12:33;;;;;;;0.10;0.10;;;;;;;13.65;100.00;102011.91;5053474;28;20025;-50
2023/08/10 06:14:58;;;;;;;0.10;0.10;;;;;;;13.82;100.00;102009.88;5053697;28;20028;-49
2023/08/10 06:17:23;;;;;;;0.10;0.10;;;;;;;14.00;100.00;102008.78;5052860;28;20032;-49
2023/08/10 06:19:53;;;;;;;0.10;0.10;;;;;;;14.22;100.00;102014.69;5053931;28;20484;-49
2023/08/10 06:22:19;;;;;;;0.10;0.10;;;;;;;14.49;100.00;102020.75;5053713;28;20037;-51
2023/08/10 06:24:45;;;;;;;0.10;0.10;;;;;;;14.65;100.00;102018.69;5052635;28;20029;-50
2023/08/10 06:27:11;;;;;;;0.10;0.10;;;;;;;14.76;100.00;102017.31;5053390;28;20061;-52
2023/08/10 06:29:37;;;;;;;0.10;0.10;;;;;;;14.79;100.00;102021.72;5053196;28;20106;-50
2023/08/10 06:32:05;;;;;;;0.10;0.10;;;;;;;14.79;100.00;102020.00;5052602;28;20476;-47
2023/08/10 06:34:30;;;;;;;0.10;0.10;;;;;;;14.73;100.00;102014.66;5053329;28;20032;-48
2023/08/10 06:36:56;;;;;;;0.10;0.10;;;;;;;14.77;100.00;102011.31;5053560;28;20023;-50
2023/08/10 06:39:21;;;;;;;0.10;0.10;;;;;;;14.79;100.00;102014.81;5052734;28;20469;-50
2023/08/10 06:41:47;;;;;;;0.10;0.10;;;;;;;14.78;100.00;102007.88;5052966;28;20112;-49
2023/08/10 06:44:12;;;;;;;0.10;0.10;;;;;;;14.86;100.00;102002.94;5053103;28;20102;-45
2023/08/10 06:46:38;;;;;;;0.10;0.10;;;;;;;14.89;100.00;102000.41;5051731;28;20390;-50
2023/08/10 06:49:03;;;;;;;0.10;0.10;;;;;;;14.98;100.00;102005.00;5053276;28;20021;-51
2023/08/10 06:51:28;;;;;;;0.10;0.10;;;;;;;15.04;100.00;102004.28;5053034;28;20483;-51
2023/08/10 06:53:55;;;;;;;0.10;0.10;;;;;;;15.08;100.00;102007.03;5052507;28;20044;-50
2023/08/10 06:56:20;;;;;;;0.10;0.10;;;;;;;15.19;100.00;102003.88;5053026;28;20059;-53
2023/08/10 06:58:45;;;;;;;0.10;0.10;;;;;;;15.32;100.00;102000.78;5052657;28;20048;-46
2023/08/10 07:01:11;;;;;;;0.10;0.10;;;;;;;15.38;100.00;102000.97;5052078;28;20017;-48
2023/08/10 07:03:36;;;;;;;0.10;0.10;;;;;;;15.40;100.00;101994.09;5052776;28;20124;-47
2023/08/10 07:06:02;;;;;;;0.10;0.10;;;;;;;15.42;100.00;101997.63;5052778;28;20425;-49
2023/08/10 07:08:28;;;;;;;0.10;0.10;;;;;;;15.50;100.00;101996.97;5051736;28;20029;-45
2023/08/10 07:10:53;;;;;;;0.10;0.10;;;;;;;15.62;100.00;102002.47;5052823;28;20380;-48
2023/08/10 07:13:18;;;;;;;0.10;0.10;;;;;;;15.69;100.00;101998.34;5052171;28;20033;-48
2023/08/10 07:15:47;;;;;;;0.03;0.03;;;;;;;15.86;100.00;102001.44;5052357;28;20035;-46
2023/08/10 07:18:14;;;;;;;0.10;0.10;;;;;;;15.92;100.00;101992.06;5052673;28;20033;-50
2023/08/10 07:20:40;;;;;;;0.10;0.10;;;;;;;15.99;97.02;101998.28;5051625;28;20500;-47
2023/08/10 07:23:05;;;;;;;0.00;0.00;;;;;;;16.15;97.17;102006.47;5052591;28;20465;-45
2023/08/10 07:25:31;;;;;;;0.10;0.10;;;;;;;16.12;94.62;102005.53;5052392;28;20024;-50
2023/08/10 07:27:57;;;;;;;0.00;0.00;;;;;;;16.24;93.10;102007.59;5051786;28;20033;-46
2023/08/10 07:30:22;;;;;;;0.00;0.00;;;;;;;16.35;92.78;102013.06;5052235;28;20024;-48
2023/08/10 07:32:48;;;;;;;0.00;0.00;;;;;;;16.49;90.79;102007.28;5052843;28;20029;-49
2023/08/10 07:35:14;;;;;;;0.10;0.10;;;;;;;16.58;88.88;102010.13;5051893;28;20381;-51
2023/08/10 07:37:40;;;;;;;0.10;0.10;;;;;;;16.62;83.95;102009.38;5052404;28;20461;-46
2023/08/10 07:40:08;;;;;;;0.08;0.08;;;;;;;16.65;83.52;102014.63;5052495;28;20393;-49
2023/08/10 07:42:34;;;;;;;0.05;0.05;;;;;;;16.83;84.65;102008.09;5051472;28;20062;-51
2023/08/10 07:44:59;;;;;;;0.10;0.10;;;;;;;16.79;87.88;102013.22;5052386;28;20045;-48
2023/08/10 07:47:24;;;;;;;0.00;0.00;;;;;;;16.95;81.75;102016.19;5052283;28;20033;-47
2023/08/10 07:49:50;;;;;;;0.10;0.10;;;;;;;17.00;80.75;102017.16;5051640;28;20064;-49
2023/08/10 07:52:15;;;;;;;0.00;0.00;;;;;;;17.08;78.15;102010.41;5052456;28;20057;-48
2023/08/10 07:54:40;;;;;;;0.00;0.00;;;;;;;17.19;78.76;102015.84;5051994;28;20021;-49
2023/08/10 07:57:06;;;;;;;0.10;0.10;;;;;;;17.25;77.49;102017.72;5054233;28;20024;-48
2023/08/10 07:59:31;;;;;;;0.10;0.10;;;;;;;17.35;73.19;102014.44;5055984;28;20066;-51
2023/08/10 08:01:57;;;;;;;0.10;0.10;;;;;;;17.48;74.88;102019.88;5056298;28;20017;-48
2023/08/10 08:04:22;;;;;;;0.10;0.10;;;;;;;17.51;69.81;102019.97;5055432;28;20024;-47
2023/08/10 08:06:48;;;;;;;0.00;0.00;;;;;;;17.66;73.18;102020.22;5056207;28;20053;-48
2023/08/10 08:09:13;;;;;;;0.00;0.00;;;;;;;17.78;73.24;102024.81;5056164;28;20021;-51
2023/08/10 08:11:39;;;;;;;0.03;0.03;;;;;;;17.97;74.24;102023.44;5055002;28;20013;-47
2023/08/10 08:14:05;;;;;;;0.10;0.10;;;;;;;18.09;72.57;102020.19;5055739;28;20079;-50
2023/08/10 08:16:31;;;;;;;0.10;0.10;;;;;;;18.17;69.50;102020.31;5054733;28;20424;-50
2023/08/10 08:18:56;;;;;;;0.10;0.10;;;;;;;18.12;67.01;102019.38;5055940;28;20566;-51
2023/08/10 08:21:31;;;;;;;0.10;0.10;;;;;;;18.22;70.63;102016.06;5055928;28;20028;-51
2023/08/10 08:23:56;;;;;;;0.00;0.00;;;;;;;18.41;67.60;102018.09;5055078;28;20109;-49
2023/08/10 08:26:23;;;;;;;0.00;0.00;;;;;;;18.29;64.25;102014.44;5055519;28;20103;-50
2023/08/10 08:28:50;;;;;;;0.00;0.00;;;;;;;18.43;63.77;102016.38;5055789;28;20040;-50
2023/08/10 08:31:15;;;;;;;0.00;0.00;;;;;;;18.45;60.95;102020.75;5054856;28;20098;-50
2023/08/10 08:33:41;;;;;;;0.00;0.00;;;;;;;18.51;64.83;102021.72;5055469;28;20104;-50
2023/08/10 08:36:07;;;;;;;0.10;0.10;;;;;;;18.64;64.62;102022.78;5055604;28;20028;-51
2023/08/10 08:38:33;;;;;;;0.00;0.00;;;;;;;18.67;60.07;102025.47;5054360;28;20488;-46
2023/08/10 08:41:06;;;;;;;0.05;0.05;;;;;;;18.85;63.08;102029.19;5055472;28;20052;-50
2023/08/10 08:43:33;;;;;;;0.00;0.00;;;;;;;19.22;63.96;102024.50;5055285;28;20017;-49
2023/08/10 08:45:59;;;;;;;0.00;0.00;;;;;;;19.41;59.38;102022.97;5054684;28;20049;-47
2023/08/10 08:48:29;;;;;;;0.00;0.00;;;;;;;19.59;57.28;102030.16;5055018;28;20111;-49
2023/08/10 08:50:55;;;;;;;0.05;0.05;;;;;;;19.98;56.11;102015.75;5055234;28;20017;-49
2023/08/10 08:53:21;;;;;;;0.10;0.10;;;;;;;20.25;55.86;102016.84;5054458;28;20045;-50
2023/08/10 08:55:46;;;;;;;0.00;0.00;;;;;;;20.59;56.00;102017.09;5054855;28;20021;-49
2023/08/10 08:58:15;;;;;;;0.00;0.00;;;;;;;20.94;54.14;102023.44;5055148;28;20029;-47
2023/08/10 09:00:45;;;;;;;0.00;0.00;;;;;;;20.83;54.68;102026.88;5053954;28;20097;-49
2023/08/10 09:03:10;;;;;;;0.05;0.05;;;;;;;21.09;53.41;102031.38;5054992;28;20365;-47
2023/08/10 09:05:36;;;;;;;0.00;0.00;;;;;;;21.11;52.74;102020.91;5054793;28;20530;-47
2023/08/10 09:08:01;;;;;;;0.00;0.00;;;;;;;21.02;53.28;102012.16;5053043;28;20392;-45
2023/08/10 09:10:27;;;;;;;0.00;0.00;;;;;;;20.78;53.45;102012.03;5054516;28;20033;-50
2023/08/10 09:12:52;;;;;;;0.00;0.00;;;;;;;20.76;52.49;102004.16;5054253;28;20503;-50
2023/08/10 09:15:19;;;;;;;0.00;0.00;;;;;;;20.57;52.38;101997.88;5054987;28;20354;-50
2023/08/10 09:17:51;;;;;;;0.00;0.00;;;;;;;20.57;53.10;102003.13;5054540;28;20362;-51
2023/08/10 09:20:22;;;;;;;0.00;0.00;;;;;;;20.69;52.44;102008.44;5054056;28;20104;-50
2023/08/10 09:22:51;;;;;;;0.00;0.00;;;;;;;20.95;54.49;101997.25;5054795;28;20037;-48
2023/08/10 09:25:16;;;;;;;0.00;0.00;;;;;;;20.99;52.50;102000.75;5054848;28;20400;-48
2023/08/10 09:27:42;;;;;;;0.00;0.00;;;;;;;20.87;52.19;102001.59;5053421;28;20032;-50
2023/08/10 09:30:08;;;;;;;0.00;0.00;;;;;;;21.16;51.10;102003.44;5054615;28;20024;-50
2023/08/10 09:32:34;;;;;;;0.00;0.00;;;;;;;20.92;52.36;102010.34;5054274;28;20071;-47
2023/08/10 09:35:00;;;;;;;0.00;0.00;;;;;;;21.10;53.02;102008.69;5054286;28;20020;-47
2023/08/10 09:37:26;;;;;;;0.00;0.00;;;;;;;21.21;52.06;102007.88;5053922;28;20032;-51
2023/08/10 09:39:55;;;;;;;0.00;0.00;;;;;;;21.68;53.64;102013.28;5054247;28;20419;-48
2023/08/10 09:42:20;;;;;;;0.00;0.00;;;;;;;21.98;49.76;102012.41;5053751;28;20090;-47
2023/08/10 09:44:48;;;;;;;0.00;0.00;;;;;;;21.67;53.23;102008.91;5053970;28;20381;-46
2023/08/10 09:47:14;;;;;;;0.00;0.00;;;;;;;21.62;50.71;102011.50;5054212;28;20025;-51
2023/08/10 09:49:58;;;;;;;0.00;0.00;;;;;;;21.57;51.34;102015.00;5053126;28;20021;-48
2023/08/10 09:52:25;;;;;;;0.00;0.00;;;;;;;21.42;51.18;102015.78;5053685;28;20025;-46
2023/08/10 09:54:53;;;;;;;0.00;0.00;;;;;;;21.23;51.17;102007.88;5054268;28;20029;-48
2023/08/10 09:57:19;;;;;;;0.00;0.00;;;;;;;21.32;53.56;102000.03;5053422;28;20107;-46
2023/08/10 09:59:45;;;;;;;0.00;0.00;;;;;;;21.56;51.52;102013.22;5053592;28;20048;-49
2023/08/10 10:02:11;;;;;;;0.00;0.00;;;;;;;21.45;52.28;102006.19;5053196;28;20029;-46
2023/08/10 10:04:38;;;;;;;0.00;0.00;;;;;;;21.96;52.17;102008.94;5053533;28;20049;-52
2023/08/10 10:07:05;;;;;;;0.00;0.00;;;;;;;22.12;49.11;102011.56;5053972;28;20025;-46
2023/08/10 10:09:33;;;;;;;0.00;0.00;;;;;;;21.85;49.00;102015.91;5052785;28;20033;-48
2023/08/10 10:12:00;;;;;;;0.00;0.00;;;;;;;22.23;51.57;102016.81;5053895;28;20104;-46
2023/08/10 10:14:27;;;;;;;0.00;0.00;;;;;;;22.45;51.74;102012.44;5053357;28;20505;-50
2023/08/10 10:16:53;;;;;;;0.00;0.00;;;;;;;22.41;53.67;102018.56;5053032;28;20176;-46
2023/08/10 10:19:19;;;;;;;0.00;0.00;;;;;;;22.35;49.12;102016.81;5053275;28;20017;-49
2023/08/10 10:21:46;;;;;;;0.00;0.00;;;;;;;21.98;50.24;102016.81;5053164;28;20029;-48
2023/08/10 10:24:14;;;;;;;0.00;0.00;;;;;;;21.75;52.32;102024.66;5052833;28;20056;-50
2023/08/10 10:26:57;;;;;;;0.00;0.00;;;;;;;21.71;56.04;102034.25;5053023;28;20017;-46
2023/08/10 10:29:22;;;;;;;0.00;0.00;;;;;;;21.58;53.53;102030.72;5053263;28;20033;-44
2023/08/10 10:31:47;;;;;;;0.00;0.00;;;;;;;21.66;54.71;102023.75;5052561;28;20096;-48
2023/08/10 10:34:17;;;;;;;0.10;0.00;;;;;;;21.58;54.45;102030.72;5053285;28;20457;-45
2023/08/10 10:36:44;;;;;;;0.00;0.00;;;;;;;21.63;54.36;102034.25;5053034;28;20567;-47
2023/08/10 10:39:11;;;;;;;0.00;0.00;;;;;;;22.14;58.25;102023.81;5052732;28;20032;-48
2023/08/10 10:41:40;;;;;;;0.00;0.00;;;;;;;22.40;54.30;102014.19;5052772;28;20369;-47
2023/08/10 10:44:06;;;;;;;0.00;0.00;;;;;;;22.64;54.12;102008.03;5053052;28;20029;-46
2023/08/10 10:46:31;;;;;;;0.00;0.00;;;;;;;22.99;53.06;102010.53;5051886;28;20048;-50
2023/08/10 10:48:57;;;;;;;0.00;0.00;;;;;;;23.28;51.39;102009.59;5053291;28;20029;-47
2023/08/10 10:51:23;;;;;;;0.00;0.00;;;;;;;23.06;50.38;102010.53;5052223;28;20826;-48
2023/08/10 10:53:53;;;;;;;0.00;0.00;;;;;;;22.99;50.44;102021.06;5053099;28;20025;-50
2023/08/10 10:56:18;;;;;;;0.00;0.00;;;;;;;22.91;48.92;102014.97;5053269;28;20076;-47
2023/08/10 10:58:44;;;;;;;0.00;0.00;;;;;;;22.76;50.50;102009.75;5051863;28;20041;-49
2023/08/10 11:01:09;;;;;;;0.00;0.00;;;;;;;22.74;49.63;102014.16;5052799;28;20399;-48
2023/08/10 11:03:40;;;;;;;0.00;0.00;;;;;;;23.07;47.96;102013.13;5052680;28;20028;-51
2023/08/10 11:06:11;;;;;;;0.00;0.00;;;;;;;23.25;49.25;102006.97;5052306;28;20104;-49
2023/08/10 11:08:37;;;;;;;0.00;0.00;;;;;;;23.32;48.49;102013.94;5052455;28;20036;-46
2023/08/10 11:11:02;;;;;;;0.00;0.00;;;;;;;23.60;47.77;102005.03;5052760;28;20021;-51
2023/08/10 11:13:28;;;;;;;0.10;0.00;;;;;;;23.76;47.31;102008.44;5051913;28;20031;-51
2023/08/10 11:15:53;;;;;;;0.00;0.00;;;;;;;24.77;48.94;102001.41;5052692;28;20021;-51